Time;durP1;ratioP1;P1;durP2;ratioP2;P2;SDS_P1;SDS_P2;PMS_P1;PMS_P2;Temp;Humidity;BMP_temperature;BMP_pressure;BME280_temperature;BME280_humidity;BME280_pressure;Samples;Min_cycle;Max_cycle;Signal;HPM_P1;HPM_P2
2023/06/13 00:01:59;;;;;;;3.22;2.92;;;;;;;;;;5086063;28;20205;-37
2023/06/13 00:04:30;;;;;;;3.10;2.83;;;;;;;;;;5082635;28;20710;-40
2023/06/13 00:06:58;;;;;;;3.38;2.63;;;;;;;;;;5084616;28;20275;-32
2023/06/13 00:09:28;;;;;;;5.17;3.30;;;;;;;;;;5079216;28;20232;-33
2023/06/13 00:11:55;;;;;;;3.97;3.00;;;;;;;;;;5087051;28;20224;-40
2023/06/13 00:14:24;;;;;;;5.30;3.08;;;;;;;;;;5088578;28;20204;-33
2023/06/13 00:16:51;;;;;;;2.78;2.58;;;;;;;;;;5088663;28;20208;-35
2023/06/13 00:19:18;;;;;;;3.83;3.43;;;;;;;;;;5076820;28;20207;-34
2023/06/13 00:21:46;;;;;;;3.22;2.90;;;;;;;;;;5089675;28;20224;-40
2023/06/13 00:24:14;;;;;;;3.35;2.72;;;;;;;;;;5072351;28;20211;-38
2023/06/13 00:26:42;;;;;;;3.70;3.20;;;;;;;;;;5072545;28;20215;-39
2023/06/13 00:29:09;;;;;;;3.08;2.78;;;;;;;;;;5089688;28;20709;-37
2023/06/13 00:31:36;;;;;;;5.03;3.13;;;;;;;;;;5084365;28;20452;-32
2023/06/13 00:34:03;;;;;;;4.37;3.00;;;;;;;;;;5076348;28;20192;-38
2023/06/13 00:36:33;;;;;;;3.20;2.90;;;;;;;;;;5089492;28;20269;-35
2023/06/13 00:39:00;;;;;;;3.13;2.80;;;;;;;;;;5082463;28;20205;-38
2023/06/13 00:41:27;;;;;;;2.90;2.60;;;;;;;;;;5069450;28;20221;-38
2023/06/13 00:43:56;;;;;;;3.30;3.00;;;;;;;;;;5077654;28;20197;-37
2023/06/13 00:46:28;;;;;;;5.13;3.50;;;;;;;;;;5073151;28;20557;-36
2023/06/13 00:48:57;;;;;;;6.33;3.50;;;;;;;;;;5178374;22;20204;-27
2023/06/13 00:51:24;;;;;;;3.27;2.97;;;;;;;;;;5111123;28;20257;-28
2023/06/13 00:53:52;;;;;;;3.13;2.83;;;;;;;;;;5098049;28;20211;-29
2023/06/13 00:56:19;;;;;;;3.27;2.97;;;;;;;;;;5109549;28;20218;-27
2023/06/13 00:58:46;;;;;;;5.30;3.20;;;;;;;;;;5110231;28;20554;-28
2023/06/13 01:01:22;;;;;;;3.33;3.03;;;;;;;;;;5110554;27;20227;-27
2023/06/13 01:03:50;;;;;;;4.70;2.60;;;;;;;;;;5103807;28;20196;-26
2023/06/13 01:06:18;;;;;;;4.97;2.60;;;;;;;;;;5109509;28;20268;-28
2023/06/13 01:08:45;;;;;;;3.93;2.83;;;;;;;;;;5102454;28;20330;-27
2023/06/13 01:11:17;;;;;;;3.67;3.03;;;;;;;;;;5101980;28;20227;-27
2023/06/13 01:13:48;;;;;;;4.43;2.70;;;;;;;;;;5109806;28;20214;-26
2023/06/13 01:16:22;;;;;;;3.70;2.87;;;;;;;;;;5107215;28;20234;-26
2023/06/13 01:18:51;;;;;;;4.57;3.00;;;;;;;;;;5103109;28;20206;-29
2023/06/13 01:21:19;;;;;;;3.23;2.87;;;;;;;;;;5109920;28;20223;-25
2023/06/13 01:23:49;;;;;;;3.20;2.90;;;;;;;;;;5115943;28;20203;-29
2023/06/13 01:26:24;;;;;;;2.77;2.47;;;;;;;;;;5123283;27;20242;-28
2023/06/13 01:28:53;;;;;;;4.77;2.50;;;;;;;;;;5110392;28;20211;-26
2023/06/13 01:31:22;;;;;;;2.97;2.77;;;;;;;;;;5111173;28;20251;-28
2023/06/13 01:33:50;;;;;;;7.90;2.90;;;;;;;;;;5125830;27;20209;-27
2023/06/13 01:36:17;;;;;;;3.33;3.03;;;;;;;;;;5110035;28;20203;-27
2023/06/13 01:38:44;;;;;;;3.53;2.97;;;;;;;;;;5099764;28;20647;-27
2023/06/13 01:41:11;;;;;;;3.40;3.10;;;;;;;;;;5118643;28;20250;-26
2023/06/13 01:43:38;;;;;;;5.47;3.17;;;;;;;;;;5112039;28;20735;-29
2023/06/13 01:46:11;;;;;;;6.37;3.17;;;;;;;;;;5111764;28;20219;-28
2023/06/13 01:48:43;;;;;;;2.90;2.60;;;;;;;;;;5114676;28;20211;-27
2023/06/13 01:51:16;;;;;;;3.17;2.83;;;;;;;;;;5110070;28;20244;-26
2023/06/13 01:53:46;;;;;;;2.83;2.63;;;;;;;;;;5100797;28;20215;-28
2023/06/13 01:56:16;;;;;;;5.97;3.10;;;;;;;;;;5102900;28;20207;-26
2023/06/13 01:58:47;;;;;;;3.60;2.60;;;;;;;;;;5112733;28;20568;-29
2023/06/13 02:01:18;;;;;;;3.97;2.60;;;;;;;;;;5107755;28;20227;-28
2023/06/13 02:03:45;;;;;;;4.30;2.60;;;;;;;;;;5111374;27;20582;-26
2023/06/13 02:06:12;;;;;;;3.17;2.87;;;;;;;;;;5106645;28;20219;-29
2023/06/13 02:08:40;;;;;;;2.60;2.40;;;;;;;;;;5115549;27;20203;-26
2023/06/13 02:11:07;;;;;;;3.57;3.00;;;;;;;;;;5098860;28;20232;-25
2023/06/13 02:13:34;;;;;;;3.33;2.63;;;;;;;;;;5115168;28;20294;-28
2023/06/13 02:16:02;;;;;;;3.10;2.70;;;;;;;;;;5115277;28;20580;-28
2023/06/13 02:18:31;;;;;;;2.37;2.17;;;;;;;;;;5115530;27;20205;-25
2023/06/13 02:20:58;;;;;;;3.07;2.60;;;;;;;;;;5118951;27;20248;-29
2023/06/13 02:23:25;;;;;;;3.23;2.67;;;;;;;;;;5107509;27;20207;-27
2023/06/13 02:25:52;;;;;;;3.90;2.80;;;;;;;;;;5112205;27;20203;-28
2023/06/13 02:28:20;;;;;;;2.63;2.43;;;;;;;;;;5112873;28;20230;-27
2023/06/13 02:30:47;;;;;;;4.23;3.00;;;;;;;;;;5111390;27;20235;-29
2023/06/13 02:33:15;;;;;;;2.80;2.50;;;;;;;;;;5112968;27;20219;-26
2023/06/13 02:35:43;;;;;;;3.17;2.50;;;;;;;;;;5113756;28;20204;-28
2023/06/13 02:38:11;;;;;;;3.00;2.70;;;;;;;;;;5104629;28;20223;-27
2023/06/13 02:40:38;;;;;;;2.80;2.60;;;;;;;;;;5101858;27;20491;-24
2023/06/13 02:43:05;;;;;;;2.47;2.27;;;;;;;;;;5113160;28;20252;-26
2023/06/13 02:45:32;;;;;;;2.90;2.70;;;;;;;;;;5112915;28;20215;-28
2023/06/13 02:47:59;;;;;;;4.47;2.70;;;;;;;;;;5109450;27;20204;-28
2023/06/13 02:50:27;;;;;;;3.67;2.80;;;;;;;;;;5112515;28;20291;-30
2023/06/13 02:52:55;;;;;;;3.13;2.70;;;;;;;;;;5105968;27;20204;-28
2023/06/13 02:55:24;;;;;;;4.07;2.70;;;;;;;;;;5125502;27;20221;-27
2023/06/13 02:57:51;;;;;;;2.40;2.20;;;;;;;;;;5113860;27;20222;-27
2023/06/13 03:00:19;;;;;;;2.77;2.57;;;;;;;;;;5112789;28;20231;-29
2023/06/13 03:02:46;;;;;;;2.90;2.50;;;;;;;;;;5114908;27;20290;-28
2023/06/13 03:05:15;;;;;;;2.97;2.37;;;;;;;;;;5112825;28;20203;-30
2023/06/13 03:07:46;;;;;;;3.13;2.60;;;;;;;;;;5109895;28;20207;-30
2023/06/13 03:10:15;;;;;;;2.80;2.50;;;;;;;;;;5113643;27;20234;-29
2023/06/13 03:12:42;;;;;;;2.83;2.17;;;;;;;;;;5111480;28;20203;-26
2023/06/13 03:15:10;;;;;;;2.87;2.57;;;;;;;;;;5112747;28;20218;-28
2023/06/13 03:17:38;;;;;;;2.37;2.17;;;;;;;;;;5106043;28;20195;-28
2023/06/13 03:20:06;;;;;;;2.60;2.40;;;;;;;;;;5123316;27;20227;-28
2023/06/13 03:22:33;;;;;;;3.97;2.60;;;;;;;;;;5112172;28;20199;-26
2023/06/13 03:25:04;;;;;;;3.27;2.57;;;;;;;;;;5114626;27;20207;-30
2023/06/13 03:27:33;;;;;;;2.47;2.27;;;;;;;;;;5112326;27;20742;-28
2023/06/13 03:30:00;;;;;;;5.13;2.53;;;;;;;;;;5111947;28;20280;-26
2023/06/13 03:32:27;;;;;;;2.63;2.40;;;;;;;;;;5114515;27;20215;-27
2023/06/13 03:34:54;;;;;;;4.13;2.50;;;;;;;;;;5115506;27;20196;-31
2023/06/13 03:37:21;;;;;;;4.97;2.77;;;;;;;;;;5114856;28;20670;-30
2023/06/13 03:39:49;;;;;;;2.27;2.10;;;;;;;;;;5121386;27;20194;-31
2023/06/13 03:42:16;;;;;;;2.97;2.67;;;;;;;;;;5113243;27;20724;-31
2023/06/13 03:44:48;;;;;;;3.73;2.37;;;;;;;;;;5114398;28;20196;-28
2023/06/13 03:47:15;;;;;;;2.40;2.20;;;;;;;;;;5113525;27;20182;-30
2023/06/13 03:49:43;;;;;;;2.97;2.57;;;;;;;;;;5107582;28;20575;-29
2023/06/13 03:52:11;;;;;;;2.50;2.30;;;;;;;;;;5114109;28;20694;-31
2023/06/13 03:54:38;;;;;;;3.07;2.70;;;;;;;;;;5125712;27;20225;-31
2023/06/13 03:57:06;;;;;;;6.57;2.60;;;;;;;;;;5122600;27;20202;-32
2023/06/13 03:59:34;;;;;;;3.10;2.57;;;;;;;;;;5107318;27;20284;-31
2023/06/13 04:02:03;;;;;;;2.63;2.43;;;;;;;;;;5111202;27;20248;-31
2023/06/13 04:04:34;;;;;;;4.73;2.80;;;;;;;;;;5115999;27;20202;-27
2023/06/13 04:07:04;;;;;;;2.87;2.53;;;;;;;;;;5104435;28;20198;-31
2023/06/13 04:09:31;;;;;;;3.77;2.53;;;;;;;;;;5118798;27;20198;-30
2023/06/13 04:11:59;;;;;;;2.40;2.20;;;;;;;;;;5106533;27;20199;-31
2023/06/13 04:14:26;;;;;;;6.43;2.37;;;;;;;;;;5099991;28;20200;-30
2023/06/13 04:16:53;;;;;;;2.53;2.33;;;;;;;;;;5109266;28;20238;-28
2023/06/13 04:19:23;;;;;;;2.83;2.40;;;;;;;;;;5110639;28;20203;-30
2023/06/13 04:21:52;;;;;;;2.50;2.30;;;;;;;;;;5111145;28;20723;-31
2023/06/13 04:24:21;;;;;;;3.13;2.73;;;;;;;;;;5115708;27;20647;-31
2023/06/13 04:26:48;;;;;;;2.93;2.27;;;;;;;;;;5114797;27;20220;-28
2023/06/13 04:29:21;;;;;;;3.67;2.10;;;;;;;;;;5110769;27;20237;-32
2023/06/13 04:31:50;;;;;;;3.33;2.27;;;;;;;;;;5112238;27;20225;-29
2023/06/13 04:34:18;;;;;;;2.73;2.27;;;;;;;;;;5113141;27;20243;-30
2023/06/13 04:36:47;;;;;;;3.87;2.50;;;;;;;;;;5113269;28;20711;-29
2023/06/13 04:39:15;;;;;;;2.57;2.37;;;;;;;;;;5112534;27;20288;-28
2023/06/13 04:41:43;;;;;;;3.27;2.63;;;;;;;;;;5115141;27;20218;-29
2023/06/13 04:44:10;;;;;;;2.77;2.40;;;;;;;;;;5112270;28;20286;-28
2023/06/13 04:46:40;;;;;;;4.50;2.30;;;;;;;;;;5110075;28;20265;-30
2023/06/13 04:49:08;;;;;;;2.60;2.40;;;;;;;;;;5112398;28;20213;-29
2023/06/13 04:51:35;;;;;;;2.57;2.30;;;;;;;;;;5112767;28;20230;-28
2023/06/13 04:54:09;;;;;;;2.53;2.33;;;;;;;;;;5106802;27;20202;-30
2023/06/13 04:56:38;;;;;;;2.93;2.53;;;;;;;;;;5115953;27;20199;-31
2023/06/13 04:59:05;;;;;;;3.67;2.10;;;;;;;;;;5101663;28;20203;-29
2023/06/13 05:01:32;;;;;;;2.33;2.10;;;;;;;;;;5103618;27;20323;-29
2023/06/13 05:03:59;;;;;;;2.57;2.37;;;;;;;;;;5112803;27;20194;-30
2023/06/13 05:06:27;;;;;;;4.20;2.47;;;;;;;;;;5112358;28;20204;-28
2023/06/13 05:08:54;;;;;;;3.83;2.30;;;;;;;;;;5108350;28;20210;-30
2023/06/13 05:11:22;;;;;;;3.93;2.13;;;;;;;;;;5112287;28;20226;-30
2023/06/13 05:13:49;;;;;;;2.63;2.00;;;;;;;;;;5112579;28;20206;-31
2023/06/13 05:18:44;;;;;;;7.23;2.30;;;;;;;;;;5333267;22;20234;-28
2023/06/13 05:21:16;;;;;;;2.90;2.30;;;;;;;;;;5103167;28;20280;-29
2023/06/13 05:23:44;;;;;;;5.93;2.43;;;;;;;;;;5098396;28;20215;-29
2023/06/13 05:26:11;;;;;;;2.23;1.87;;;;;;;;;;5102543;28;20208;-31
2023/06/13 05:28:40;;;;;;;3.70;1.80;;;;;;;;;;5109980;28;20207;-27
2023/06/13 05:31:07;;;;;;;4.80;1.90;;;;;;;;;;5106996;28;20238;-30
2023/06/13 05:33:34;;;;;;;2.67;1.97;;;;;;;;;;5113528;27;20211;-30
2023/06/13 05:36:01;;;;;;;3.60;2.27;;;;;;;;;;5113919;28;20206;-31
2023/06/13 05:38:28;;;;;;;3.15;2.00;;;;;;;;;;5108647;28;20646;-27
2023/06/13 05:40:55;;;;;;;1.93;1.83;;;;;;;;;;5121825;27;20234;-28
2023/06/13 05:43:22;;;;;;;2.13;2.03;;;;;;;;;;5114222;28;20203;-29
2023/06/13 05:45:51;;;;;;;2.38;1.98;;;;;;;;;;5114340;28;20300;-29
2023/06/13 05:48:18;;;;;;;2.50;2.10;;;;;;;;;;5107240;28;20600;-31
2023/06/13 05:50:45;;;;;;;3.33;2.20;;;;;;;;;;5112857;28;20225;-31
2023/06/13 05:53:13;;;;;;;4.78;2.13;;;;;;;;;;5107006;27;20207;-37
2023/06/13 05:55:40;;;;;;;4.13;2.10;;;;;;;;;;5109590;27;20202;-30
2023/06/13 05:58:07;;;;;;;3.78;2.08;;;;;;;;;;5112723;28;20192;-31
2023/06/13 06:00:34;;;;;;;3.05;2.00;;;;;;;;;;5114110;28;20216;-31
2023/06/13 06:03:04;;;;;;;2.42;2.10;;;;;;;;;;5112731;27;20209;-30
2023/06/13 06:05:34;;;;;;;4.20;2.25;;;;;;;;;;5124296;27;20426;-31
2023/06/13 06:08:01;;;;;;;4.30;2.28;;;;;;;;;;5100711;28;20205;-30
2023/06/13 06:10:28;;;;;;;4.78;3.13;;;;;;;;;;5121192;27;20228;-28
2023/06/13 06:12:56;;;;;;;4.50;1.77;;;;;;;;;;5112921;28;20676;-27
2023/06/13 06:15:23;;;;;;;2.55;2.33;;;;;;;;;;5113375;28;20522;-27
2023/06/13 06:17:50;;;;;;;2.40;2.20;;;;;;;;;;5116832;27;20553;-30
2023/06/13 06:20:19;;;;;;;2.00;1.90;;;;;;;;;;5107785;27;20277;-29
2023/06/13 06:22:46;;;;;;;2.38;2.05;;;;;;;;;;5111563;27;20560;-30
2023/06/13 06:25:19;;;;;;;5.47;2.30;;;;;;;;;;5123304;27;20203;-27
2023/06/13 06:27:46;;;;;;;2.33;2.13;;;;;;;;;;5114847;27;20200;-27
2023/06/13 06:30:13;;;;;;;4.03;2.15;;;;;;;;;;5113003;28;20582;-31
2023/06/13 06:32:41;;;;;;;6.28;2.22;;;;;;;;;;5112220;27;20227;-30
2023/06/13 06:35:08;;;;;;;4.78;2.30;;;;;;;;;;5112793;28;20191;-30
2023/06/13 06:37:36;;;;;;;2.25;1.92;;;;;;;;;;5108777;28;20257;-32
2023/06/13 06:40:04;;;;;;;1.90;1.80;;;;;;;;;;5116576;27;20227;-28
2023/06/13 06:42:31;;;;;;;4.07;2.08;;;;;;;;;;5115159;27;20208;-30
2023/06/13 06:44:58;;;;;;;4.85;2.10;;;;;;;;;;5112942;28;20217;-28
2023/06/13 06:47:25;;;;;;;2.10;1.80;;;;;;;;;;5112643;27;20205;-28
2023/06/13 06:49:52;;;;;;;2.05;1.85;;;;;;;;;;5113215;27;20503;-28
2023/06/13 06:52:20;;;;;;;2.22;2.03;;;;;;;;;;5112644;28;20221;-28
2023/06/13 06:57:16;;;;;;;3.20;2.25;;;;;;;;;;5070400;28;20505;-40
2023/06/13 06:59:44;;;;;;;3.17;2.15;;;;;;;;;;5071658;28;20197;-41
2023/06/13 07:02:11;;;;;;;2.15;1.80;;;;;;;;;;5063317;28;20199;-34
2023/06/13 07:04:38;;;;;;;3.20;2.33;;;;;;;;;;5068071;28;20207;-41
2023/06/13 07:07:05;;;;;;;2.38;1.95;;;;;;;;;;5071502;28;20204;-34
2023/06/13 07:09:33;;;;;;;5.47;2.20;;;;;;;;;;5057889;28;20203;-40
2023/06/13 07:12:00;;;;;;;4.10;2.17;;;;;;;;;;5063852;28;20306;-38
2023/06/13 07:14:28;;;;;;;2.40;2.20;;;;;;;;;;5071415;28;20207;-37
2023/06/13 07:16:55;;;;;;;4.82;2.30;;;;;;;;;;5069227;28;20211;-36
2023/06/13 07:19:23;;;;;;;3.88;2.25;;;;;;;;;;5061705;28;20685;-40
2023/06/13 07:21:50;;;;;;;3.35;2.22;;;;;;;;;;5071119;28;20219;-35
2023/06/13 07:24:17;;;;;;;3.63;2.10;;;;;;;;;;5056681;28;20209;-34
2023/06/13 07:26:44;;;;;;;2.40;2.20;;;;;;;;;;5068347;28;20209;-38
2023/06/13 07:29:11;;;;;;;3.10;2.00;;;;;;;;;;5071310;28;20200;-34
2023/06/13 07:31:40;;;;;;;2.13;1.92;;;;;;;;;;5066999;28;20236;-35
2023/06/13 07:34:07;;;;;;;2.17;2.05;;;;;;;;;;5067515;28;20224;-36
2023/06/13 07:36:34;;;;;;;7.57;2.97;;;;;;;;;;5071047;28;20224;-38
2023/06/13 07:39:10;;;;;;;3.10;2.10;;;;;;;;;;5057360;28;20272;-32
2023/06/13 07:41:37;;;;;;;4.60;2.25;;;;;;;;;;5067115;28;20221;-36
2023/06/13 07:44:04;;;;;;;2.08;1.90;;;;;;;;;;5071964;28;20205;-38
2023/06/13 07:46:32;;;;;;;2.30;2.10;;;;;;;;;;5069394;28;20286;-37
2023/06/13 07:49:00;;;;;;;4.90;2.30;;;;;;;;;;5058998;28;20201;-35
2023/06/13 07:51:27;;;;;;;5.40;2.22;;;;;;;;;;5070535;28;20213;-39
2023/06/13 07:53:54;;;;;;;2.28;2.10;;;;;;;;;;5066601;28;20205;-38
2023/06/13 07:56:22;;;;;;;4.65;2.22;;;;;;;;;;5061934;28;20596;-40
2023/06/13 07:58:50;;;;;;;3.17;2.20;;;;;;;;;;5068867;28;20193;-40
2023/06/13 08:01:17;;;;;;;5.20;2.67;;;;;;;;;;5070834;28;20221;-42
2023/06/13 08:03:45;;;;;;;2.35;2.08;;;;;;;;;;5063403;28;20211;-40
2023/06/13 08:06:14;;;;;;;2.28;2.10;;;;;;;;;;5065279;28;20201;-37
2023/06/13 08:08:41;;;;;;;4.13;2.42;;;;;;;;;;5057132;28;20198;-41
2023/06/13 08:11:09;;;;;;;3.95;2.13;;;;;;;;;;5061889;28;20221;-37
2023/06/13 08:13:36;;;;;;;3.55;2.17;;;;;;;;;;5061671;28;20197;-38
2023/06/13 08:16:03;;;;;;;2.78;2.25;;;;;;;;;;5060831;28;20201;-35
2023/06/13 08:18:31;;;;;;;2.67;2.38;;;;;;;;;;5060052;28;20197;-38
2023/06/13 08:20:58;;;;;;;2.70;2.50;;;;;;;;;;5063449;28;20237;-38
2023/06/13 08:23:26;;;;;;;2.20;2.10;;;;;;;;;;5059373;28;20279;-39
2023/06/13 08:25:53;;;;;;;2.50;2.30;;;;;;;;;;5063508;28;20197;-38
2023/06/13 08:28:20;;;;;;;6.28;2.28;;;;;;;;;;5064305;28;20636;-38
2023/06/13 08:30:49;;;;;;;2.28;2.08;;;;;;;;;;5056140;28;20221;-40
2023/06/13 08:33:16;;;;;;;2.75;2.13;;;;;;;;;;5063107;28;20197;-30
2023/06/13 08:35:43;;;;;;;6.18;2.20;;;;;;;;;;5062586;28;20204;-38
2023/06/13 08:38:11;;;;;;;7.50;2.35;;;;;;;;;;5054691;28;20197;-36
2023/06/13 08:40:40;;;;;;;4.13;2.28;;;;;;;;;;5063857;28;20304;-37
2023/06/13 08:43:07;;;;;;;2.38;2.17;;;;;;;;;;5067211;28;20208;-36
2023/06/13 08:45:34;;;;;;;4.82;2.10;;;;;;;;;;5058919;28;20206;-37
2023/06/13 08:48:02;;;;;;;2.85;2.10;;;;;;;;;;5054579;28;20202;-30
2023/06/13 08:50:30;;;;;;;4.05;2.17;;;;;;;;;;5058584;28;20222;-34
2023/06/13 08:52:58;;;;;;;3.33;2.08;;;;;;;;;;5059845;28;20232;-35
2023/06/13 08:55:25;;;;;;;2.13;2.03;;;;;;;;;;5058273;28;20216;-35
2023/06/13 08:57:54;;;;;;;2.92;2.13;;;;;;;;;;5061352;28;20189;-38
2023/06/13 09:00:23;;;;;;;4.75;2.00;;;;;;;;;;5060638;28;20224;-39
2023/06/13 09:02:52;;;;;;;2.40;2.00;;;;;;;;;;5059176;28;20192;-36
2023/06/13 09:05:19;;;;;;;3.58;2.20;;;;;;;;;;5063892;28;20218;-35
2023/06/13 09:07:47;;;;;;;2.33;1.90;;;;;;;;;;5060624;28;20423;-37
2023/06/13 09:10:14;;;;;;;3.03;2.10;;;;;;;;;;5059175;28;20221;-38
2023/06/13 09:12:42;;;;;;;3.63;2.25;;;;;;;;;;5065734;28;20216;-40
2023/06/13 09:15:11;;;;;;;2.40;2.10;;;;;;;;;;5062056;28;20280;-34
2023/06/13 09:17:39;;;;;;;2.53;2.22;;;;;;;;;;5061060;28;20189;-37
2023/06/13 09:20:09;;;;;;;3.47;2.10;;;;;;;;;;5064087;28;20221;-35
2023/06/13 09:22:37;;;;;;;2.22;2.03;;;;;;;;;;5062985;28;20215;-39
2023/06/13 09:25:04;;;;;;;2.97;2.53;;;;;;;;;;5058412;28;20286;-37
2023/06/13 09:27:32;;;;;;;2.42;2.22;;;;;;;;;;5061808;28;20204;-39
2023/06/13 09:30:00;;;;;;;3.75;2.38;;;;;;;;;;5062522;28;20366;-34
2023/06/13 09:32:30;;;;;;;3.78;2.17;;;;;;;;;;5056623;28;20221;-40
2023/06/13 09:34:57;;;;;;;3.38;2.28;;;;;;;;;;5063122;28;20207;-35
2023/06/13 09:37:26;;;;;;;5.13;2.25;;;;;;;;;;5064928;28;20634;-33
2023/06/13 09:39:54;;;;;;;5.03;1.98;;;;;;;;;;5059350;28;20306;-38
2023/06/13 09:42:21;;;;;;;6.65;2.30;;;;;;;;;;5068077;28;20199;-36
2023/06/13 09:44:49;;;;;;;7.45;2.45;;;;;;;;;;5069767;28;20589;-36
2023/06/13 09:47:22;;;;;;;2.45;2.08;;;;;;;;;;5057789;28;20205;-39
2023/06/13 09:49:52;;;;;;;4.85;2.25;;;;;;;;;;5056828;28;20212;-33
2023/06/13 09:52:23;;;;;;;4.28;2.13;;;;;;;;;;5064809;28;20298;-38
2023/06/13 09:54:50;;;;;;;4.85;2.40;;;;;;;;;;5059712;28;20205;-36
2023/06/13 09:57:17;;;;;;;5.75;2.30;;;;;;;;;;5063966;28;20211;-40
2023/06/13 09:59:47;;;;;;;4.88;3.38;;;;;;;;;;5060121;28;20196;-40
2023/06/13 10:02:14;;;;;;;3.83;3.22;;;;;;;;;;5056838;28;20207;-38
2023/06/13 10:04:41;;;;;;;3.70;3.05;;;;;;;;;;5064352;28;20202;-41
2023/06/13 10:07:11;;;;;;;3.15;2.47;;;;;;;;;;5062796;28;20203;-41
2023/06/13 10:09:38;;;;;;;2.75;2.47;;;;;;;;;;5061888;28;20203;-33
2023/06/13 10:12:07;;;;;;;3.30;2.08;;;;;;;;;;5060485;28;20679;-37
2023/06/13 10:14:38;;;;;;;3.58;2.20;;;;;;;;;;5061004;28;20263;-38
2023/06/13 10:17:08;;;;;;;4.10;2.25;;;;;;;;;;5057622;28;20215;-40
2023/06/13 10:19:38;;;;;;;2.90;2.60;;;;;;;;;;5067279;28;20616;-40
2023/06/13 10:22:06;;;;;;;2.55;2.35;;;;;;;;;;5067025;28;20219;-44
2023/06/13 10:24:35;;;;;;;5.80;2.55;;;;;;;;;;5067400;28;20240;-38
2023/06/13 10:27:02;;;;;;;2.85;2.20;;;;;;;;;;5063607;28;20209;-35
2023/06/13 10:29:50;;;;;;;3.00;2.08;;;;;;;;;;5066080;28;20400;-40
2023/06/13 10:32:25;;;;;;;2.35;2.10;;;;;;;;;;5067635;28;20216;-37
2023/06/13 10:35:05;;;;;;;2.45;2.17;;;;;;;;;;5058243;28;20298;-39
2023/06/13 10:37:57;;;;;;;3.70;2.20;;;;;;;;;;5064421;28;20212;-40
2023/06/13 10:40:41;;;;;;;3.30;2.03;;;;;;;;;;5049371;28;20217;-40
2023/06/13 10:43:14;;;;;;;2.60;2.40;;;;;;;;;;5064604;28;20193;-34
2023/06/13 10:45:41;;;;;;;3.47;2.10;;;;;;;;;;5068118;28;20191;-37
2023/06/13 10:48:08;;;;;;;4.38;2.22;;;;;;;;;;5066440;28;20211;-35
2023/06/13 10:50:38;;;;;;;2.20;2.00;;;;;;;;;;5068625;28;20566;-38
2023/06/13 10:53:05;;;;;;;2.40;2.20;;;;;;;;;;5060680;28;20217;-33
2023/06/13 10:55:38;;;;;;;4.97;2.63;;;;;;;;;;5065878;28;20206;-35
2023/06/13 10:58:11;;;;;;;2.58;2.20;;;;;;;;;;5063233;28;20521;-39
2023/06/13 11:00:40;;;;;;;2.85;2.40;;;;;;;;;;5064134;28;20211;-37
2023/06/13 11:03:09;;;;;;;4.82;2.60;;;;;;;;;;5064047;28;20199;-40
2023/06/13 11:05:38;;;;;;;2.58;2.38;;;;;;;;;;5064046;28;20209;-38
2023/06/13 11:08:06;;;;;;;6.25;2.70;;;;;;;;;;5066505;28;20215;-35
2023/06/13 11:10:36;;;;;;;4.00;2.42;;;;;;;;;;5072431;28;20227;-40
2023/06/13 11:13:04;;;;;;;6.22;2.30;;;;;;;;;;5064345;28;20223;-36
2023/06/13 11:15:31;;;;;;;2.45;2.20;;;;;;;;;;5063667;28;20196;-39
2023/06/13 11:18:02;;;;;;;7.80;2.28;;;;;;;;;;5060127;28;20197;-30
2023/06/13 11:20:29;;;;;;;2.50;2.30;;;;;;;;;;5065963;28;20220;-33
2023/06/13 11:22:58;;;;;;;5.57;2.38;;;;;;;;;;5063256;28;20211;-34
2023/06/13 11:25:25;;;;;;;3.38;2.17;;;;;;;;;;5066798;28;20204;-36
2023/06/13 11:27:53;;;;;;;3.60;2.67;;;;;;;;;;5066171;28;20208;-37
2023/06/13 11:30:20;;;;;;;4.38;2.15;;;;;;;;;;5066733;28;20232;-39
2023/06/13 11:32:51;;;;;;;3.30;2.10;;;;;;;;;;5065366;28;20207;-33
2023/06/13 11:35:20;;;;;;;9.05;2.72;;;;;;;;;;5066357;28;20563;-38
2023/06/13 11:37:50;;;;;;;5.38;2.60;;;;;;;;;;5066146;28;20195;-34
2023/06/13 11:40:20;;;;;;;2.72;2.42;;;;;;;;;;5067446;28;20247;-33
2023/06/13 11:42:47;;;;;;;3.92;2.35;;;;;;;;;;5067466;28;20197;-40
2023/06/13 11:45:15;;;;;;;4.95;2.53;;;;;;;;;;5060958;28;20201;-38
2023/06/13 11:47:45;;;;;;;2.97;2.30;;;;;;;;;;5056278;28;20200;-34
2023/06/13 11:50:12;;;;;;;2.65;2.13;;;;;;;;;;5065637;28;20823;-34
2023/06/13 11:52:39;;;;;;;4.15;2.67;;;;;;;;;;5058839;28;20221;-37
2023/06/13 11:55:17;;;;;;;4.07;2.20;;;;;;;;;;5064628;28;20214;-37
2023/06/13 11:57:48;;;;;;;7.78;2.65;;;;;;;;;;5063693;28;20611;-37
2023/06/13 12:00:17;;;;;;;2.85;2.65;;;;;;;;;;5061458;28;20216;-33
2023/06/13 12:02:45;;;;;;;3.03;2.38;;;;;;;;;;5063371;28;20695;-39
2023/06/13 12:05:13;;;;;;;10.30;2.83;;;;;;;;;;5061802;28;20239;-32
2023/06/13 12:07:40;;;;;;;9.32;2.72;;;;;;;;;;5061167;28;20208;-37
2023/06/13 12:10:08;;;;;;;3.63;3.10;;;;;;;;;;5062583;28;20517;-33
2023/06/13 12:12:35;;;;;;;2.47;2.22;;;;;;;;;;5062710;28;20215;-35
2023/06/13 12:15:03;;;;;;;3.03;2.80;;;;;;;;;;5061438;28;20199;-39
2023/06/13 12:17:32;;;;;;;3.08;2.80;;;;;;;;;;5058447;28;20230;-38
2023/06/13 12:20:10;;;;;;;4.00;2.40;;;;;;;;;;5063100;28;20691;-39
2023/06/13 12:22:37;;;;;;;3.28;2.50;;;;;;;;;;5062233;28;20267;-40
2023/06/13 12:25:05;;;;;;;4.63;2.90;;;;;;;;;;5060170;28;20199;-34
2023/06/13 12:27:33;;;;;;;6.75;2.42;;;;;;;;;;5065235;28;20253;-35
2023/06/13 12:30:09;;;;;;;2.63;2.40;;;;;;;;;;5065302;28;20228;-38
2023/06/13 12:32:43;;;;;;;2.47;2.22;;;;;;;;;;5062127;28;20210;-38
2023/06/13 12:35:11;;;;;;;3.08;2.63;;;;;;;;;;5063524;28;20603;-34
2023/06/13 12:37:40;;;;;;;3.80;2.30;;;;;;;;;;5060838;28;20203;-37
2023/06/13 12:40:11;;;;;;;5.65;2.67;;;;;;;;;;5059816;28;20210;-38
2023/06/13 12:42:42;;;;;;;4.03;2.60;;;;;;;;;;5063162;28;20193;-35
2023/06/13 12:45:10;;;;;;;2.67;2.47;;;;;;;;;;5064710;28;20199;-35
2023/06/13 12:47:38;;;;;;;3.55;2.60;;;;;;;;;;5059457;28;20202;-34
2023/06/13 12:50:09;;;;;;;4.68;2.25;;;;;;;;;;5059541;28;20582;-40
2023/06/13 12:52:36;;;;;;;3.55;2.42;;;;;;;;;;5062918;28;20285;-39
2023/06/13 12:55:04;;;;;;;6.43;2.90;;;;;;;;;;5059406;28;20207;-40
2023/06/13 12:57:32;;;;;;;4.18;2.65;;;;;;;;;;5063603;28;20196;-36
2023/06/13 12:59:59;;;;;;;5.13;2.80;;;;;;;;;;5061677;28;20210;-38
2023/06/13 13:02:27;;;;;;;3.47;2.75;;;;;;;;;;5058832;28;20223;-36
2023/06/13 13:04:59;;;;;;;3.88;3.17;;;;;;;;;;5062076;28;20196;-36
2023/06/13 13:07:28;;;;;;;12.13;3.30;;;;;;;;;;5060408;28;20191;-38
2023/06/13 13:09:56;;;;;;;3.08;2.78;;;;;;;;;;5055747;28;20271;-32
2023/06/13 13:12:25;;;;;;;2.80;2.45;;;;;;;;;;5062689;28;20670;-34
2023/06/13 13:14:52;;;;;;;5.80;2.60;;;;;;;;;;5060163;28;20202;-39
2023/06/13 13:17:19;;;;;;;3.10;2.85;;;;;;;;;;5059608;28;20206;-35
2023/06/13 13:19:52;;;;;;;3.88;2.85;;;;;;;;;;5065665;28;20196;-42
2023/06/13 13:22:21;;;;;;;3.85;2.58;;;;;;;;;;5058524;28;20298;-34
2023/06/13 13:24:48;;;;;;;2.90;2.70;;;;;;;;;;5063296;28;20206;-36
2023/06/13 13:27:15;;;;;;;3.05;2.63;;;;;;;;;;5062812;28;20204;-37
2023/06/13 13:29:42;;;;;;;4.07;2.75;;;;;;;;;;5062741;28;20562;-40
2023/06/13 13:32:10;;;;;;;4.95;3.08;;;;;;;;;;5058945;28;20312;-36
2023/06/13 13:34:38;;;;;;;3.50;3.20;;;;;;;;;;5063675;28;20219;-35
2023/06/13 13:37:05;;;;;;;7.90;2.53;;;;;;;;;;5068332;28;20523;-37
2023/06/13 13:39:33;;;;;;;6.60;2.45;;;;;;;;;;5062153;28;20204;-35
2023/06/13 13:42:00;;;;;;;2.83;2.63;;;;;;;;;;5060476;28;20209;-37
2023/06/13 13:44:27;;;;;;;5.93;3.17;;;;;;;;;;5063018;28;20200;-36
2023/06/13 13:46:55;;;;;;;4.03;2.53;;;;;;;;;;5057805;28;20196;-36
2023/06/13 13:49:22;;;;;;;2.75;2.53;;;;;;;;;;5060050;28;20202;-42
2023/06/13 13:51:49;;;;;;;3.20;2.90;;;;;;;;;;5062536;28;20215;-38
2023/06/13 13:54:16;;;;;;;7.60;2.80;;;;;;;;;;5063810;28;20223;-39
2023/06/13 13:56:45;;;;;;;2.85;2.45;;;;;;;;;;5062571;28;20211;-39
2023/06/13 13:59:13;;;;;;;4.35;2.78;;;;;;;;;;5062347;28;20219;-37
2023/06/13 14:01:40;;;;;;;4.05;2.90;;;;;;;;;;5062158;28;20300;-37
2023/06/13 14:04:07;;;;;;;3.50;3.17;;;;;;;;;;5062713;28;20296;-37
2023/06/13 14:06:34;;;;;;;4.55;3.08;;;;;;;;;;5067073;28;20259;-37
2023/06/13 14:09:02;;;;;;;5.53;2.50;;;;;;;;;;5053142;28;20201;-37
2023/06/13 14:11:29;;;;;;;4.25;2.60;;;;;;;;;;5060593;28;20300;-38
2023/06/13 14:13:58;;;;;;;6.25;3.17;;;;;;;;;;5060737;28;20212;-41
2023/06/13 14:16:27;;;;;;;2.92;2.72;;;;;;;;;;5057132;28;20207;-41
2023/06/13 14:18:57;;;;;;;3.97;2.80;;;;;;;;;;5059854;28;20232;-34
2023/06/13 14:21:24;;;;;;;3.50;2.67;;;;;;;;;;5063998;28;20753;-36
2023/06/13 14:23:52;;;;;;;5.53;3.58;;;;;;;;;;5059114;28;20199;-37
2023/06/13 14:26:19;;;;;;;3.70;2.63;;;;;;;;;;5055947;28;20206;-42
2023/06/13 14:28:46;;;;;;;2.90;2.55;;;;;;;;;;5064355;28;20189;-38
2023/06/13 14:31:15;;;;;;;4.13;2.90;;;;;;;;;;5059062;28;20225;-38
2023/06/13 14:33:43;;;;;;;3.45;2.80;;;;;;;;;;5065604;28;20209;-32
2023/06/13 14:36:10;;;;;;;2.97;2.78;;;;;;;;;;5067674;28;20230;-37
2023/06/13 14:38:39;;;;;;;2.95;2.75;;;;;;;;;;5176266;22;20322;-32
2023/06/13 14:41:06;;;;;;;3.50;3.05;;;;;;;;;;5109778;28;20268;-32
2023/06/13 14:43:33;;;;;;;3.72;2.45;;;;;;;;;;5113946;28;20202;-32
2023/06/13 14:46:01;;;;;;;9.00;3.10;;;;;;;;;;5105922;28;20200;-29
2023/06/13 14:48:29;;;;;;;3.38;2.72;;;;;;;;;;5110426;28;20268;-29
2023/06/13 14:50:56;;;;;;;4.65;2.97;;;;;;;;;;5112263;28;20230;-30
2023/06/13 14:53:23;;;;;;;2.95;2.60;;;;;;;;;;5107978;28;20227;-30
2023/06/13 14:55:50;;;;;;;4.93;2.80;;;;;;;;;;5112467;28;20210;-29